createdAt,value
2018-05-16T00:00:59.581Z,15.30
2018-05-16T00:03:27.047Z,15.30
2018-05-16T00:05:54.505Z,15.30
2018-05-16T00:08:21.965Z,15.30
2018-05-16T00:10:49.422Z,15.20
2018-05-16T00:13:16.881Z,15.30
2018-05-16T00:15:44.318Z,15.30
2018-05-16T00:18:11.785Z,15.30
2018-05-16T00:20:39.249Z,15.30
2018-05-16T00:23:06.689Z,15.30
2018-05-16T00:25:34.168Z,15.30
2018-05-16T00:28:01.638Z,15.30
2018-05-16T00:30:29.069Z,15.30
2018-05-16T00:32:56.522Z,15.30
2018-05-16T00:35:23.985Z,15.30
2018-05-16T00:37:51.412Z,15.30
2018-05-16T00:40:18.873Z,15.30
2018-05-16T00:42:46.329Z,15.20
2018-05-16T00:45:13.769Z,15.20
2018-05-16T00:47:41.985Z,15.20
2018-05-16T00:50:09.425Z,15.20
2018-05-16T00:52:36.887Z,15.20
2018-05-16T00:55:04.337Z,15.20
2018-05-16T00:57:31.803Z,15.20
2018-05-16T00:59:59.229Z,15.20
2018-05-16T01:02:26.685Z,15.20
2018-05-16T01:04:54.123Z,15.20
2018-05-16T01:07:21.586Z,15.20
2018-05-16T01:09:49.025Z,15.20
2018-05-16T01:12:16.461Z,15.20
2018-05-16T01:14:43.914Z,15.20
2018-05-16T01:17:11.373Z,15.10
2018-05-16T01:19:38.809Z,15.10
2018-05-16T01:22:07.018Z,15.10
2018-05-16T01:24:34.557Z,15.10
2018-05-16T01:27:02.009Z,15.10
2018-05-16T01:29:30.213Z,15.00
2018-05-16T01:31:57.668Z,15.00
2018-05-16T01:34:25.125Z,15.10
2018-05-16T01:36:52.568Z,15.10
2018-05-16T01:39:20.030Z,15.00
2018-05-16T01:41:47.489Z,15.00
2018-05-16T01:44:16.877Z,15.00
2018-05-16T01:46:45.087Z,15.00
2018-05-16T01:49:19.157Z,15.00
2018-05-16T01:51:47.353Z,15.00
2018-05-16T01:54:14.824Z,14.90
2018-05-16T01:56:42.256Z,15.00
2018-05-16T01:59:09.692Z,15.00
2018-05-16T02:01:37.149Z,14.90
2018-05-16T02:04:04.578Z,15.00
2018-05-16T02:06:32.039Z,14.90
2018-05-16T02:08:59.481Z,14.90
2018-05-16T02:11:26.945Z,14.90
2018-05-16T02:13:54.410Z,14.90
2018-05-16T02:16:21.854Z,14.90
2018-05-16T02:18:49.337Z,14.90
2018-05-16T02:21:16.837Z,14.90
2018-05-16T02:23:45.081Z,14.80
2018-05-16T02:26:12.544Z,14.80
2018-05-16T02:28:40.030Z,14.80
2018-05-16T02:31:08.260Z,14.80
2018-05-16T02:33:35.709Z,14.80
2018-05-16T02:36:03.195Z,14.80
2018-05-16T02:38:30.661Z,14.80
2018-05-16T02:40:58.108Z,14.80
2018-05-16T02:43:25.593Z,14.80
2018-05-16T02:45:53.822Z,14.80
2018-05-16T02:48:21.305Z,14.80
2018-05-16T02:50:48.793Z,14.80
2018-05-16T02:53:17.041Z,14.80
2018-05-16T02:55:44.517Z,14.70
2018-05-16T02:58:11.973Z,14.70
2018-05-16T03:00:39.445Z,14.70
2018-05-16T03:03:06.905Z,14.70
2018-05-16T03:05:34.383Z,14.70
2018-05-16T03:08:01.844Z,14.70
2018-05-16T03:10:30.645Z,14.70
2018-05-16T03:12:58.103Z,14.60
2018-05-16T03:15:25.561Z,14.60
2018-05-16T03:17:53.056Z,14.60
2018-05-16T03:20:20.513Z,14.60
2018-05-16T03:22:48.004Z,14.60
2018-05-16T03:25:15.464Z,14.60
2018-05-16T03:27:42.993Z,14.60
2018-05-16T03:30:10.449Z,14.50
2018-05-16T03:32:37.909Z,14.50
2018-05-16T03:35:06.188Z,14.50
2018-05-16T03:37:33.671Z,14.50
2018-05-16T03:40:01.972Z,14.50
2018-05-16T03:42:29.429Z,14.50
2018-05-16T03:44:57.029Z,14.50
2018-05-16T03:47:24.489Z,14.50
2018-05-16T03:49:51.966Z,14.50
2018-05-16T03:52:19.445Z,14.50
2018-05-16T03:54:47.697Z,14.50
2018-05-16T04:00:27.224Z,14.50
2018-05-16T04:03:06.611Z,14.50
2018-05-16T04:05:34.083Z,14.50
2018-05-16T04:08:02.304Z,14.50
2018-05-16T04:10:29.776Z,14.50
2018-05-16T04:12:57.280Z,14.50
2018-05-16T04:15:25.509Z,14.50
2018-05-16T04:17:52.998Z,14.50
2018-05-16T04:20:20.461Z,14.60
2018-05-16T04:22:48.723Z,14.50
2018-05-16T04:25:16.180Z,14.50
2018-05-16T04:27:43.640Z,14.60
2018-05-16T04:30:11.342Z,14.60
2018-05-16T04:32:38.881Z,14.60
2018-05-16T04:35:06.272Z,14.60
2018-05-16T04:37:33.740Z,14.60
2018-05-16T04:40:01.245Z,14.70
2018-05-16T04:42:29.488Z,14.60
2018-05-16T04:44:56.949Z,14.60
2018-05-16T04:47:24.464Z,14.60
2018-05-16T04:49:51.936Z,14.70
2018-05-16T04:52:19.392Z,14.60
2018-05-16T04:54:46.877Z,14.70
2018-05-16T04:57:14.368Z,14.70
2018-05-16T04:59:42.608Z,14.70
2018-05-16T05:02:10.105Z,14.70
2018-05-16T05:04:37.580Z,14.70
2018-05-16T05:07:05.065Z,14.70
2018-05-16T05:09:32.525Z,14.70
2018-05-16T05:12:00.009Z,14.70
2018-05-16T05:14:27.493Z,14.70
2018-05-16T05:16:54.972Z,14.70
2018-05-16T05:19:22.457Z,14.80
2018-05-16T05:21:49.929Z,14.80
2018-05-16T05:24:17.385Z,14.70
2018-05-16T05:26:44.880Z,14.80
2018-05-16T05:29:12.412Z,14.80
2018-05-16T05:31:39.865Z,14.80
2018-05-16T05:34:07.327Z,14.90
2018-05-16T05:39:08.713Z,15.00
2018-05-16T05:41:36.928Z,15.20
2018-05-16T05:44:04.408Z,15.10
2018-05-16T05:46:31.925Z,15.30
2018-05-16T05:48:59.423Z,15.40
2018-05-16T05:51:26.900Z,15.40
2018-05-16T05:53:55.215Z,15.60
2018-05-16T05:56:22.716Z,15.60
2018-05-16T05:58:55.993Z,15.70
2018-05-16T06:01:23.473Z,15.80
2018-05-16T06:03:50.932Z,15.90
2018-05-16T06:06:18.425Z,15.90
2018-05-16T06:08:45.905Z,16.00
2018-05-16T06:11:13.364Z,16.10
2018-05-16T06:13:40.859Z,16.10
2018-05-16T06:16:08.375Z,16.20
2018-05-16T06:18:35.863Z,16.30
2018-05-16T06:21:04.104Z,16.50
2018-05-16T06:23:31.575Z,16.50
2018-05-16T06:25:59.056Z,16.60
2018-05-16T06:28:26.541Z,16.70
2018-05-16T06:30:54.800Z,16.80
2018-05-16T06:33:22.253Z,16.80
2018-05-16T06:35:49.768Z,17.00
2018-05-16T06:38:17.237Z,17.10
2018-05-16T06:40:44.726Z,17.30
2018-05-16T06:43:12.230Z,17.50
2018-05-16T06:45:40.477Z,17.70
2018-05-16T06:48:07.976Z,17.70
2018-05-16T06:50:36.200Z,18.00
2018-05-16T06:53:03.730Z,17.90
2018-05-16T06:55:31.176Z,18.00
2018-05-16T06:57:58.661Z,18.20
2018-05-16T07:00:26.120Z,18.30
2018-05-16T07:02:53.588Z,18.50
2018-05-16T07:05:21.070Z,18.70
2018-05-16T07:07:48.569Z,18.80
2018-05-16T07:10:16.024Z,19.00
2018-05-16T07:12:43.501Z,19.00
2018-05-16T07:15:11.766Z,19.10
2018-05-16T07:17:39.412Z,19.10
2018-05-16T07:20:06.892Z,19.10
2018-05-16T07:22:35.161Z,19.10
2018-05-16T07:25:02.633Z,19.20
2018-05-16T07:27:30.863Z,19.20
2018-05-16T07:29:58.452Z,19.10
2018-05-16T07:32:26.554Z,19.20
2018-05-16T07:34:53.957Z,19.30
2018-05-16T07:37:21.416Z,19.30
2018-05-16T07:39:48.910Z,19.40
2018-05-16T07:42:17.152Z,19.50
2018-05-16T07:44:44.628Z,19.50
2018-05-16T07:47:12.125Z,19.60
2018-05-16T07:49:40.336Z,19.80
2018-05-16T07:52:07.805Z,19.80
2018-05-16T07:54:35.293Z,19.90
2018-05-16T07:57:02.759Z,20.00
2018-05-16T07:59:30.203Z,20.10
2018-05-16T08:01:57.700Z,20.30
2018-05-16T08:04:25.924Z,20.50
2018-05-16T08:06:53.397Z,20.50
2018-05-16T08:09:20.864Z,20.70
2018-05-16T08:11:48.398Z,20.80
2018-05-16T08:14:15.884Z,21.00
2018-05-16T08:16:43.932Z,21.20
2018-05-16T08:19:12.193Z,21.50
2018-05-16T08:21:39.672Z,21.50
2018-05-16T08:24:07.124Z,21.70
2018-05-16T08:26:34.613Z,21.80
2018-05-16T08:29:02.945Z,21.90
2018-05-16T08:31:30.437Z,21.90
2018-05-16T08:33:57.889Z,22.00
2018-05-16T08:36:25.367Z,22.10
2018-05-16T08:38:53.579Z,22.60
2018-05-16T08:41:21.079Z,22.60
2018-05-16T08:43:48.544Z,22.90
2018-05-16T08:46:16.028Z,23.10
2018-05-16T08:48:44.233Z,23.80
2018-05-16T08:51:11.712Z,23.70
2018-05-16T08:53:39.187Z,24.20
2018-05-16T08:56:07.456Z,25.10
2018-05-16T08:58:35.082Z,25.00
2018-05-16T09:01:02.563Z,25.50
2018-05-16T09:03:30.037Z,25.80
2018-05-16T09:05:57.523Z,26.00
2018-05-16T09:08:25.743Z,26.60
2018-05-16T09:10:53.236Z,26.60
2018-05-16T09:13:20.705Z,26.90
2018-05-16T09:15:48.963Z,27.40
2018-05-16T09:18:16.422Z,27.40
2018-05-16T09:20:43.890Z,27.70
2018-05-16T09:23:11.372Z,28.00
2018-05-16T09:25:38.864Z,28.10
2018-05-16T09:28:06.324Z,28.10
2018-05-16T09:30:33.820Z,28.20
2018-05-16T09:33:01.323Z,28.30
2018-05-16T09:35:28.784Z,28.40
2018-05-16T09:37:56.298Z,28.50
2018-05-16T09:40:23.782Z,28.50
2018-05-16T09:42:51.364Z,28.70
2018-05-16T09:45:18.824Z,28.70
2018-05-16T09:47:46.280Z,28.80
2018-05-16T09:50:13.761Z,28.80
2018-05-16T09:52:41.228Z,28.80
2018-05-16T09:55:08.746Z,28.70
2018-05-16T09:57:36.225Z,28.60
2018-05-16T10:00:03.765Z,28.50
2018-05-16T10:02:31.249Z,28.30
2018-05-16T10:04:58.707Z,28.20
2018-05-16T10:07:26.193Z,28.00
2018-05-16T10:09:53.651Z,27.90
2018-05-16T10:12:21.119Z,27.90
2018-05-16T10:14:49.345Z,27.80
2018-05-16T10:17:16.815Z,27.80
2018-05-16T10:19:44.268Z,27.80
2018-05-16T10:22:11.756Z,27.70
2018-05-16T10:24:39.216Z,27.60
2018-05-16T10:27:06.672Z,27.40
2018-05-16T10:29:34.152Z,27.30
2018-05-16T10:32:01.634Z,27.30
2018-05-16T10:34:29.579Z,27.50
2018-05-16T10:36:57.816Z,27.90
2018-05-16T10:39:25.311Z,27.90
2018-05-16T10:41:53.525Z,28.30
2018-05-16T10:44:21.013Z,28.30
2018-05-16T10:46:48.468Z,28.60
2018-05-16T10:49:15.945Z,28.70
2018-05-16T10:51:43.400Z,28.90
2018-05-16T10:54:10.877Z,29.10
2018-05-16T10:56:39.100Z,29.60
2018-05-16T10:59:06.588Z,29.60
2018-05-16T11:01:34.073Z,29.90
2018-05-16T11:04:01.521Z,30.10
2018-05-16T11:06:29.133Z,30.40
2018-05-16T11:08:57.419Z,31.00
2018-05-16T11:11:26.607Z,30.90
2018-05-16T11:13:54.069Z,31.20
2018-05-16T11:16:21.552Z,31.40
2018-05-16T11:18:49.042Z,31.70
2018-05-16T11:21:16.518Z,31.80
2018-05-16T11:23:43.997Z,32.00
2018-05-16T11:26:11.480Z,32.00
2018-05-16T11:28:38.947Z,32.10
2018-05-16T11:31:06.417Z,32.00
2018-05-16T11:33:33.906Z,32.10
2018-05-16T11:36:02.160Z,32.40
2018-05-16T11:38:29.712Z,32.40
2018-05-16T11:40:57.236Z,32.50
2018-05-16T11:43:24.883Z,32.80
2018-05-16T11:45:52.360Z,33.00
2018-05-16T11:48:19.816Z,33.00
2018-05-16T11:50:47.311Z,33.30
2018-05-16T11:53:14.801Z,33.40
2018-05-16T11:55:42.404Z,33.50
2018-05-16T11:58:09.878Z,33.70
2018-05-16T12:00:37.338Z,33.70
2018-05-16T12:03:04.827Z,33.80
2018-05-16T12:05:33.074Z,33.60
2018-05-16T12:08:00.524Z,33.60
2018-05-16T12:10:28.024Z,33.40
2018-05-16T12:12:56.282Z,33.40
2018-05-16T12:15:23.769Z,33.40
2018-05-16T12:17:51.260Z,33.60
2018-05-16T12:20:18.730Z,33.80
2018-05-16T12:22:46.208Z,33.90
2018-05-16T12:25:13.676Z,34.00
2018-05-16T12:27:41.158Z,34.10
2018-05-16T12:30:08.641Z,34.20
2018-05-16T12:32:36.139Z,34.20
2018-05-16T12:35:03.589Z,34.00
2018-05-16T12:37:32.296Z,33.70
2018-05-16T12:39:59.753Z,33.70
2018-05-16T12:42:27.224Z,33.70
2018-05-16T12:44:54.862Z,33.90
2018-05-16T12:47:22.337Z,34.00
2018-05-16T12:49:49.808Z,34.20
2018-05-16T12:52:17.268Z,34.30
2018-05-16T12:54:45.508Z,34.50
2018-05-16T12:57:13.044Z,34.50
2018-05-16T12:59:40.514Z,34.60
2018-05-16T13:02:07.968Z,34.70
2018-05-16T13:04:35.472Z,34.80
2018-05-16T13:07:03.022Z,34.70
2018-05-16T13:09:30.488Z,34.80
2018-05-16T13:11:58.780Z,34.90
2018-05-16T13:14:26.232Z,34.90
2018-05-16T13:16:54.482Z,35.10
2018-05-16T13:19:21.928Z,35.10
2018-05-16T13:21:49.466Z,35.10
2018-05-16T13:24:16.924Z,35.30
2018-05-16T13:26:44.398Z,35.20
2018-05-16T13:29:11.883Z,35.00
2018-05-16T13:31:39.477Z,35.00
2018-05-16T13:34:06.942Z,35.10
2018-05-16T13:36:34.406Z,34.90
2018-05-16T13:39:01.880Z,34.80
2018-05-16T13:41:29.329Z,34.60
2018-05-16T13:43:56.840Z,34.50
2018-05-16T13:46:25.110Z,34.40
2018-05-16T13:48:52.576Z,34.40
2018-05-16T13:51:20.796Z,34.80
2018-05-16T13:53:48.309Z,34.80
2018-05-16T13:56:16.533Z,35.10
2018-05-16T13:58:44.028Z,35.10
2018-05-16T14:01:11.505Z,35.10
2018-05-16T14:03:38.964Z,35.10
2018-05-16T14:06:06.451Z,35.10
2018-05-16T14:08:33.910Z,35.10
2018-05-16T14:11:01.414Z,35.00
2018-05-16T14:13:28.880Z,34.80
2018-05-16T14:15:56.380Z,34.70
2018-05-16T14:18:23.844Z,34.50
2018-05-16T14:20:51.321Z,34.60
2018-05-16T14:23:18.775Z,34.60
2018-05-16T14:25:47.032Z,34.30
2018-05-16T14:28:14.500Z,34.30
2018-05-16T14:30:41.949Z,34.20
2018-05-16T14:33:09.427Z,34.10
2018-05-16T14:35:36.885Z,34.00
2018-05-16T14:38:07.341Z,33.80
2018-05-16T14:40:34.805Z,33.60
2018-05-16T14:43:03.120Z,33.00
2018-05-16T14:45:31.382Z,33.00
2018-05-16T14:47:58.857Z,32.60
2018-05-16T14:50:26.336Z,32.00
2018-05-16T14:52:56.723Z,31.30
2018-05-16T14:58:15.225Z,30.00
2018-05-16T15:00:42.732Z,29.30
2018-05-16T15:03:11.511Z,28.70
2018-05-16T15:05:39.809Z,27.90
2018-05-16T15:08:07.293Z,27.80
2018-05-16T15:10:34.768Z,27.60
2018-05-16T15:13:02.258Z,27.30
2018-05-16T15:15:29.720Z,27.00
2018-05-16T15:17:57.976Z,26.70
2018-05-16T15:20:25.507Z,26.60
2018-05-16T15:22:52.963Z,26.50
2018-05-16T15:25:20.465Z,26.30
2018-05-16T15:27:48.684Z,26.00
2018-05-16T15:30:16.156Z,26.00
2018-05-16T15:32:43.637Z,25.90
2018-05-16T15:35:11.117Z,25.70
2018-05-16T15:37:38.597Z,25.60
2018-05-16T15:40:06.057Z,25.50
2018-05-16T15:42:33.547Z,25.40
2018-05-16T15:45:01.008Z,25.30
2018-05-16T15:47:28.472Z,25.30
2018-05-16T15:49:55.945Z,25.20
2018-05-16T15:52:23.472Z,25.20
2018-05-16T15:54:51.020Z,25.10
2018-05-16T15:57:18.477Z,25.10
2018-05-16T15:59:46.014Z,25.00
2018-05-16T16:02:13.429Z,24.90
2018-05-16T16:04:40.889Z,24.80
2018-05-16T16:07:08.387Z,24.80
2018-05-16T16:09:35.865Z,24.70
2018-05-16T16:12:03.364Z,24.60
2018-05-16T16:14:30.816Z,24.60
2018-05-16T16:16:59.046Z,24.40
2018-05-16T16:19:26.525Z,24.30
2018-05-16T16:21:53.982Z,24.30
2018-05-16T16:24:21.490Z,24.20
2018-05-16T16:26:49.720Z,24.10
2018-05-16T16:29:17.201Z,24.10
2018-05-16T16:31:44.684Z,24.00
2018-05-16T16:34:12.313Z,24.00
2018-05-16T16:36:39.862Z,23.90
2018-05-16T16:39:07.353Z,23.80
2018-05-16T16:41:34.847Z,23.80
2018-05-16T16:44:02.305Z,23.70
2018-05-16T16:46:29.792Z,23.70
2018-05-16T16:48:57.256Z,23.60
2018-05-16T16:51:24.793Z,23.60
2018-05-16T16:53:52.248Z,23.50
2018-05-16T16:56:19.768Z,23.50
2018-05-16T16:58:47.996Z,23.40
2018-05-16T17:01:15.534Z,23.30
2018-05-16T17:03:42.990Z,23.30
2018-05-16T17:06:10.457Z,23.30
2018-05-16T17:08:37.938Z,23.30
2018-05-16T17:11:05.422Z,23.20
2018-05-16T17:13:32.904Z,23.20
2018-05-16T17:16:01.117Z,23.20
2018-05-16T17:18:29.341Z,23.10
2018-05-16T17:20:57.639Z,23.20
2018-05-16T17:23:25.063Z,23.10
2018-05-16T17:25:52.513Z,23.10
2018-05-16T17:28:19.991Z,23.10
2018-05-16T17:30:48.228Z,23.00
2018-05-16T17:33:15.774Z,23.00
2018-05-16T17:35:43.181Z,22.90
2018-05-16T17:38:11.425Z,22.70
2018-05-16T17:40:38.916Z,22.70
2018-05-16T17:43:06.383Z,22.70
2018-05-16T17:45:33.853Z,22.60
2018-05-16T17:48:01.330Z,22.50
2018-05-16T17:50:28.807Z,22.50
2018-05-16T17:52:57.031Z,22.30
2018-05-16T17:55:24.500Z,22.20
2018-05-16T17:57:51.975Z,22.10
2018-05-16T18:00:19.456Z,22.10
2018-05-16T18:02:46.909Z,22.00
2018-05-16T18:05:15.152Z,21.90
2018-05-16T18:07:43.527Z,21.90
2018-05-16T18:10:11.015Z,21.80
2018-05-16T18:12:39.252Z,21.70
2018-05-16T18:15:19.304Z,21.60
2018-05-16T18:17:46.764Z,21.60
2018-05-16T18:20:14.257Z,21.50
2018-05-16T18:22:42.539Z,21.30
2018-05-16T18:25:10.054Z,21.30
2018-05-16T18:27:37.524Z,21.20
2018-05-16T18:30:04.997Z,21.10
2018-05-16T18:32:32.644Z,21.00
2018-05-16T18:35:00.972Z,20.90
2018-05-16T18:37:28.454Z,20.80
2018-05-16T18:39:55.930Z,20.80
2018-05-16T18:42:23.425Z,20.70
2018-05-16T18:44:50.906Z,20.60
2018-05-16T18:47:18.405Z,20.50
2018-05-16T18:49:45.869Z,20.50
2018-05-16T18:52:13.341Z,20.40
2018-05-16T18:54:40.824Z,20.30
2018-05-16T18:57:09.057Z,20.20
2018-05-16T18:59:36.535Z,20.10
2018-05-16T19:02:04.005Z,20.10
2018-05-16T19:04:31.504Z,20.00
2018-05-16T19:06:58.973Z,19.90
2018-05-16T19:09:26.481Z,19.90
2018-05-16T19:11:54.717Z,19.70
2018-05-16T19:14:22.204Z,19.70
2018-05-16T19:16:50.446Z,19.50
2018-05-16T19:19:17.927Z,19.50
2018-05-16T19:21:45.372Z,19.50
2018-05-16T19:24:12.833Z,19.40
2018-05-16T19:26:40.315Z,19.30
2018-05-16T19:29:08.557Z,19.10
2018-05-16T19:31:36.042Z,19.10
2018-05-16T19:34:04.277Z,19.00
2018-05-16T19:36:31.772Z,19.00
2018-05-16T19:38:59.238Z,18.90
2018-05-16T19:41:26.699Z,18.90
2018-05-16T19:43:54.213Z,18.70
2018-05-16T19:46:21.695Z,18.70
2018-05-16T19:48:49.161Z,18.60
2018-05-16T19:51:16.632Z,18.60
2018-05-16T19:53:44.089Z,18.50
2018-05-16T19:56:11.557Z,18.40
2018-05-16T19:58:39.144Z,18.40
2018-05-16T20:01:06.553Z,18.30
2018-05-16T20:03:34.012Z,18.20
2018-05-16T20:06:01.499Z,18.20
2018-05-16T20:08:28.947Z,18.10
2018-05-16T20:10:56.453Z,18.00
2018-05-16T20:13:23.904Z,18.00
2018-05-16T20:15:51.410Z,17.90
2018-05-16T20:18:19.628Z,17.70
2018-05-16T20:20:47.092Z,17.70
2018-05-16T20:23:14.647Z,17.70
2018-05-16T20:25:43.625Z,17.70
2018-05-16T20:28:11.142Z,17.50
2018-05-16T20:30:39.396Z,17.40
2018-05-16T20:33:06.880Z,17.40
2018-05-16T20:35:34.337Z,17.40
2018-05-16T20:38:01.820Z,17.30
2018-05-16T20:40:29.304Z,17.20
2018-05-16T20:42:56.767Z,17.20
2018-05-16T20:45:24.256Z,17.20
2018-05-16T20:47:51.712Z,17.10
2018-05-16T20:50:19.192Z,17.10
2018-05-16T20:52:46.662Z,17.00
2018-05-16T20:55:14.918Z,16.90
2018-05-16T20:57:42.381Z,16.90
2018-05-16T21:00:10.736Z,16.90
2018-05-16T21:02:38.224Z,16.80
2018-05-16T21:05:05.748Z,16.70
2018-05-16T21:07:33.226Z,16.70
2018-05-16T21:10:00.727Z,16.60
2018-05-16T21:12:28.209Z,16.60
2018-05-16T21:14:55.659Z,16.60
2018-05-16T21:17:23.148Z,16.50
2018-05-16T21:19:50.624Z,16.40
2018-05-16T21:22:18.081Z,16.30
2018-05-16T21:24:45.561Z,16.30
2018-05-16T21:27:13.070Z,16.20
2018-05-16T21:29:40.551Z,16.20
2018-05-16T21:32:08.858Z,16.00
2018-05-16T21:34:36.404Z,16.00
2018-05-16T21:37:03.908Z,16.00
2018-05-16T21:39:31.365Z,15.90
2018-05-16T21:41:58.914Z,15.90
2018-05-16T21:44:26.394Z,15.80
2018-05-16T21:46:53.853Z,15.70
2018-05-16T21:49:21.344Z,15.60
2018-05-16T21:51:49.552Z,15.50
2018-05-16T21:54:17.023Z,15.50
2018-05-16T21:56:44.531Z,15.50
2018-05-16T21:59:11.973Z,15.40
2018-05-16T22:01:39.420Z,15.40
2018-05-16T22:04:06.918Z,15.30
2018-05-16T22:06:34.381Z,15.30
2018-05-16T22:09:01.870Z,15.20
2018-05-16T22:11:29.331Z,15.20
2018-05-16T22:13:56.813Z,15.10
2018-05-16T22:16:24.296Z,15.00
2018-05-16T22:18:51.754Z,15.00
2018-05-16T22:21:20.000Z,14.80
2018-05-16T22:23:47.461Z,14.80
2018-05-16T22:26:14.936Z,14.80
2018-05-16T22:28:42.410Z,14.70
2018-05-16T22:31:15.544Z,14.70
2018-05-16T22:33:48.751Z,14.60
2018-05-16T22:36:21.976Z,14.50
2018-05-16T22:38:55.885Z,14.40
2018-05-16T22:41:29.050Z,14.40
2018-05-16T22:46:59.860Z,14.30
2018-05-16T22:49:27.321Z,14.30
2018-05-16T22:51:54.814Z,14.20
2018-05-16T22:54:22.284Z,14.10
2018-05-16T22:56:49.765Z,14.10
2018-05-16T22:59:17.329Z,14.00
2018-05-16T23:01:45.348Z,14.00
2018-05-16T23:04:12.824Z,13.90
2018-05-16T23:06:41.074Z,13.80
2018-05-16T23:09:08.552Z,13.80
2018-05-16T23:11:36.032Z,13.70
2018-05-16T23:14:03.514Z,13.60
2018-05-16T23:16:30.967Z,13.60
2018-05-16T23:18:58.436Z,13.50
2018-05-16T23:21:25.901Z,13.50
2018-05-16T23:23:53.389Z,13.40
2018-05-16T23:26:20.844Z,13.40
2018-05-16T23:28:48.321Z,13.30
2018-05-16T23:31:16.577Z,13.20
2018-05-16T23:33:44.032Z,13.20
2018-05-16T23:36:11.499Z,13.10
2018-05-16T23:38:39.048Z,13.00
2018-05-16T23:41:06.533Z,12.90
2018-05-16T23:43:34.758Z,12.80
2018-05-16T23:46:02.243Z,12.80
2018-05-16T23:48:29.729Z,12.80
2018-05-16T23:50:57.969Z,12.70
2018-05-16T23:53:25.443Z,12.60
2018-05-16T23:55:52.913Z,12.60
2018-05-16T23:58:20.405Z,12.50
